createdAt,value
2024-05-09T00:01:07.847Z,102334.09
2024-05-09T00:04:12.659Z,102320.00
2024-05-09T00:07:17.367Z,102320.94
2024-05-09T00:10:33.167Z,102320.09
2024-05-09T00:13:41.347Z,102327.50
2024-05-09T00:16:46.042Z,102320.53
2024-05-09T00:19:50.809Z,102326.88
2024-05-09T00:22:55.528Z,102320.75
2024-05-09T00:26:02.717Z,102319.31
2024-05-09T00:29:07.416Z,102309.19
2024-05-09T00:32:12.055Z,102312.66
2024-05-09T00:35:16.841Z,102317.94
2024-05-09T00:38:21.491Z,102312.94
2024-05-09T00:41:28.867Z,102321.53
2024-05-09T00:44:33.594Z,102314.34
2024-05-09T00:47:38.779Z,102314.34
2024-05-09T00:50:45.298Z,102315.81
2024-05-09T00:53:50.753Z,102314.34
2024-05-09T00:56:59.032Z,102312.28
2024-05-09T01:00:06.074Z,102315.66
2024-05-09T01:03:14.102Z,102320.13
2024-05-09T01:06:19.293Z,102316.75
2024-05-09T01:09:23.994Z,102321.59
2024-05-09T01:12:31.417Z,102322.03
2024-05-09T01:15:36.836Z,102324.53
2024-05-09T01:18:41.682Z,102325.81
2024-05-09T01:21:46.674Z,102323.09
2024-05-09T01:24:54.485Z,102333.44
2024-05-09T01:27:58.998Z,102323.31
2024-05-09T01:31:03.646Z,102316.75
2024-05-09T01:34:08.251Z,102326.03
2024-05-09T01:37:12.907Z,102329.91
2024-05-09T01:40:25.366Z,102323.81
2024-05-09T01:43:38.595Z,102324.03
2024-05-09T01:46:43.281Z,102317.72
2024-05-09T01:49:47.905Z,102317.94
2024-05-09T01:52:52.657Z,102309.28
2024-05-09T01:55:59.863Z,102312.03
2024-05-09T01:59:05.063Z,102315.41
2024-05-09T02:02:10.217Z,102321.31
2024-05-09T02:05:15.081Z,102317.09
2024-05-09T02:08:21.853Z,102318.38
2024-05-09T02:11:29.394Z,102315.84
2024-05-09T02:14:34.077Z,102324.28
2024-05-09T02:17:38.913Z,102320.69
2024-05-09T02:20:44.399Z,102312.28
2024-05-09T02:23:49.008Z,102319.00
2024-05-09T02:26:56.163Z,102319.63
2024-05-09T02:30:00.774Z,102315.41
2024-05-09T02:33:05.739Z,102312.47
2024-05-09T02:36:10.461Z,102316.47
2024-05-09T02:39:12.414Z,102305.50
2024-05-09T02:42:19.625Z,102303.59
2024-05-09T02:45:21.522Z,102304.66
2024-05-09T02:48:26.684Z,102305.47
2024-05-09T02:51:28.742Z,102301.66
2024-05-09T02:54:33.307Z,102300.63
2024-05-09T02:57:37.906Z,102306.28
2024-05-09T03:00:43.268Z,102309.22
2024-05-09T03:03:45.908Z,102306.47
2024-05-09T03:06:50.879Z,102302.91
2024-05-09T03:09:52.813Z,102302.66
2024-05-09T03:13:00.200Z,102305.38
2024-05-09T03:16:02.197Z,102308.28
2024-05-09T03:19:06.955Z,102304.06
2024-05-09T03:22:08.994Z,102310.59
2024-05-09T03:25:13.835Z,102307.22
2024-05-09T03:28:21.075Z,102304.25
2024-05-09T03:31:23.059Z,102307.84
2024-05-09T03:34:28.018Z,102309.97
2024-05-09T03:37:32.922Z,102317.91
2024-05-09T03:40:37.595Z,102310.56
2024-05-09T03:43:46.822Z,102312.44
2024-05-09T03:46:51.735Z,102317.44
2024-05-09T03:49:53.725Z,102312.44
2024-05-09T03:52:58.343Z,102319.78
2024-05-09T03:56:00.484Z,102313.69
2024-05-09T03:59:07.716Z,102319.81
2024-05-09T04:02:09.897Z,102312.81
2024-05-09T04:05:14.589Z,102320.78
2024-05-09T04:08:16.817Z,102323.94
2024-05-09T04:11:21.683Z,102323.47
2024-05-09T04:14:26.453Z,102322.63
2024-05-09T04:17:31.296Z,102317.59
2024-05-09T04:20:38.639Z,102320.78
2024-05-09T04:23:45.245Z,102317.44
2024-05-09T04:26:52.422Z,102315.59
2024-05-09T04:29:57.031Z,102319.03
2024-05-09T04:33:01.906Z,102324.13
2024-05-09T04:36:07.028Z,102321.41
2024-05-09T04:39:08.914Z,102324.44
2024-05-09T04:42:13.421Z,102331.41
2024-05-09T04:45:17.967Z,102329.31
2024-05-09T04:48:22.689Z,102328.69
2024-05-09T04:51:25.330Z,102332.03
2024-05-09T04:54:35.966Z,102330.03
2024-05-09T04:57:38.830Z,102329.53
2024-05-09T05:00:46.043Z,102331.16
2024-05-09T05:03:48.297Z,102334.91
2024-05-09T05:06:52.844Z,102331.34
2024-05-09T05:09:55.052Z,102335.63
2024-05-09T05:13:15.312Z,102329.06
2024-05-09T05:16:22.481Z,102328.25
2024-05-09T05:19:24.519Z,102328.06
2024-05-09T05:22:29.383Z,102333.38
2024-05-09T05:25:31.966Z,102330.50
2024-05-09T05:28:36.587Z,102332.06
2024-05-09T05:31:41.205Z,102329.91
2024-05-09T05:34:45.805Z,102324.59
2024-05-09T05:37:47.787Z,102325.00
2024-05-09T05:40:52.471Z,102330.13
2024-05-09T05:43:57.022Z,102322.19
2024-05-09T05:47:01.822Z,102329.03
2024-05-09T05:50:17.601Z,102330.66
2024-05-09T05:53:46.320Z,102325.03
2024-05-09T05:56:50.857Z,102335.72
2024-05-09T05:59:52.898Z,102328.66
2024-05-09T06:03:00.298Z,102334.72
2024-05-09T06:06:05.856Z,102330.25
2024-05-09T06:09:08.013Z,102326.69
2024-05-09T06:12:12.801Z,102325.81
2024-05-09T06:15:14.855Z,102332.16
2024-05-09T06:18:22.436Z,102329.38
2024-05-09T06:21:24.586Z,102327.16
2024-05-09T06:24:29.244Z,102318.56
2024-05-09T06:27:31.162Z,102318.03
2024-05-09T06:30:40.196Z,102311.16
2024-05-09T06:33:49.166Z,102316.03
2024-05-09T06:36:51.123Z,102322.59
2024-05-09T06:39:55.659Z,102318.69
2024-05-09T06:42:59.251Z,102311.72
2024-05-09T06:46:04.160Z,102307.25
2024-05-09T06:49:13.731Z,102310.34
2024-05-09T06:52:19.524Z,102307.13
2024-05-09T06:55:24.366Z,102310.13
2024-05-09T06:58:26.271Z,102311.75
2024-05-09T07:01:30.967Z,102307.47
2024-05-09T07:04:35.759Z,102305.03
2024-05-09T07:07:40.423Z,102302.81
2024-05-09T07:10:45.140Z,102297.41
2024-05-09T07:13:47.156Z,102302.81
2024-05-09T07:16:51.897Z,102305.25
2024-05-09T07:19:56.610Z,102303.38
2024-05-09T07:23:01.684Z,102308.06
2024-05-09T07:26:03.843Z,102303.47
2024-05-09T07:29:08.649Z,102298.13
2024-05-09T07:32:10.722Z,102297.66
2024-05-09T07:35:18.149Z,102300.22
2024-05-09T07:38:20.318Z,102308.69
2024-05-09T07:41:25.118Z,102300.72
2024-05-09T07:44:27.186Z,102308.19
2024-05-09T07:48:57.488Z,102299.78
2024-05-09T07:52:45.954Z,102301.69
2024-05-09T07:54:21.978Z,102291.94
2024-05-09T07:57:27.251Z,102284.22
2024-05-09T08:00:32.287Z,102293.47
2024-05-09T08:03:34.841Z,102294.81
2024-05-09T08:06:42.704Z,102292.91
2024-05-09T08:09:48.809Z,102287.66
2024-05-09T08:12:54.035Z,102282.59
2024-05-09T08:15:56.101Z,102284.75
2024-05-09T08:19:00.891Z,102285.97
2024-05-09T08:22:07.285Z,102287.31
2024-05-09T08:25:15.589Z,102284.56
2024-05-09T08:28:20.302Z,102279.19
2024-05-09T08:31:25.142Z,102266.84
2024-05-09T08:34:27.175Z,102270.44
2024-05-09T08:37:38.737Z,102270.16
2024-05-09T08:40:42.864Z,102268.06
2024-05-09T08:43:47.604Z,102271.13
2024-05-09T08:46:51.788Z,102262.25
2024-05-09T08:49:58.669Z,102269.16
2024-05-09T08:53:06.065Z,102262.09
2024-05-09T08:56:11.491Z,102269.03
2024-05-09T08:59:23.628Z,102273.06
2024-05-09T09:02:26.706Z,102273.91
2024-05-09T09:05:34.267Z,102261.84
2024-05-09T09:08:39.652Z,102268.25
2024-05-09T09:11:44.365Z,102253.72
2024-05-09T09:14:46.242Z,102258.63
2024-05-09T09:17:57.330Z,102256.31
2024-05-09T09:21:02.885Z,102258.53
2024-05-09T09:24:09.961Z,102251.66
2024-05-09T09:27:16.662Z,102258.78
2024-05-09T09:30:34.001Z,102262.97
2024-05-09T09:33:44.922Z,102254.88
2024-05-09T09:36:50.683Z,102248.31
2024-05-09T09:39:55.573Z,102253.44
2024-05-09T09:43:00.747Z,102243.81
2024-05-09T09:46:07.207Z,102256.91
2024-05-09T09:49:12.968Z,102254.13
2024-05-09T09:52:15.462Z,102258.72
2024-05-09T09:55:25.217Z,102259.88
2024-05-09T09:58:29.383Z,102250.91
2024-05-09T10:01:34.701Z,102255.63
2024-05-09T10:04:40.847Z,102248.78
2024-05-09T10:07:45.764Z,102252.78
2024-05-09T10:10:53.993Z,102244.66
2024-05-09T10:13:57.597Z,102246.63
2024-05-09T10:17:07.342Z,102248.28
2024-05-09T10:20:14.748Z,102242.66
2024-05-09T10:23:27.506Z,102239.13
2024-05-09T10:26:36.482Z,102246.47
2024-05-09T10:29:41.030Z,102243.06
2024-05-09T10:32:45.184Z,102244.97
2024-05-09T10:35:54.327Z,102233.84
2024-05-09T10:38:56.348Z,102226.88
2024-05-09T10:42:03.967Z,102224.50
2024-05-09T10:45:09.521Z,102220.16
2024-05-09T10:48:12.062Z,102215.34
2024-05-09T10:51:16.846Z,102217.28
2024-05-09T10:54:21.431Z,102213.91
2024-05-09T10:57:27.384Z,102211.19
2024-05-09T11:00:36.195Z,102201.94
2024-05-09T11:03:39.710Z,102205.69
2024-05-09T11:06:44.954Z,102197.44
2024-05-09T11:09:47.872Z,102200.69
2024-05-09T11:12:55.120Z,102192.09
2024-05-09T11:16:00.253Z,102194.13
2024-05-09T11:19:02.589Z,102186.97
2024-05-09T11:22:07.664Z,102191.44
2024-05-09T11:25:13.052Z,102189.38
2024-05-09T11:28:18.037Z,102187.47
2024-05-09T11:31:22.771Z,102185.25
2024-05-09T11:34:27.510Z,102186.66
2024-05-09T11:37:31.354Z,102182.09
2024-05-09T11:40:36.990Z,102176.44
2024-05-09T11:43:44.151Z,102172.84
2024-05-09T11:46:46.191Z,102165.97
2024-05-09T11:49:50.758Z,102164.81
2024-05-09T11:52:52.783Z,102155.16
2024-05-09T11:55:57.347Z,102159.91
2024-05-09T11:59:04.557Z,102156.84
2024-05-09T12:02:06.756Z,102158.91
2024-05-09T12:05:11.401Z,102159.41
2024-05-09T12:08:14.351Z,102155.41
2024-05-09T12:11:19.067Z,102154.88
2024-05-09T12:14:26.275Z,102153.06
2024-05-09T12:17:31.082Z,102149.13
2024-05-09T12:20:37.601Z,102150.25
2024-05-09T12:23:44.241Z,102148.25
2024-05-09T12:26:46.303Z,102141.44
2024-05-09T12:29:53.425Z,102137.69
2024-05-09T12:32:55.546Z,102132.41
2024-05-09T12:36:00.412Z,102136.19
2024-05-09T12:39:02.925Z,102133.22
2024-05-09T12:42:08.288Z,102128.09
2024-05-09T12:45:13.690Z,102116.28
2024-05-09T12:48:18.447Z,102116.06
2024-05-09T12:51:23.098Z,102111.09
2024-05-09T12:54:25.002Z,102106.44
2024-05-09T12:57:29.816Z,102109.09
2024-05-09T13:00:34.912Z,102103.16
2024-05-09T13:03:39.772Z,102094.81
2024-05-09T13:06:44.605Z,102080.56
2024-05-09T13:09:46.740Z,102082.94
2024-05-09T13:12:51.602Z,102094.00
2024-05-09T13:15:56.174Z,102081.00
2024-05-09T13:19:00.900Z,102074.94
2024-05-09T13:22:02.894Z,102072.13
2024-05-09T13:25:08.190Z,102075.47
2024-05-09T13:28:10.440Z,102068.78
2024-05-09T13:31:18.188Z,102050.06
2024-05-09T13:34:20.412Z,102050.75
2024-05-09T13:37:25.149Z,102054.19
2024-05-09T13:40:32.939Z,102052.75
2024-05-09T13:43:39.986Z,102042.31
2024-05-09T13:46:44.645Z,102044.38
2024-05-09T13:49:49.990Z,102040.34
2024-05-09T13:52:52.086Z,102034.81
2024-05-09T13:55:56.925Z,102035.41
2024-05-09T13:58:59.173Z,102037.81
2024-05-09T14:02:06.658Z,102037.34
2024-05-09T14:05:09.070Z,102032.38
2024-05-09T14:08:15.514Z,102035.28
2024-05-09T14:11:20.304Z,102027.94
2024-05-09T14:14:22.346Z,102025.22
2024-05-09T14:17:29.776Z,102019.22
2024-05-09T14:20:32.606Z,102020.94
2024-05-09T14:23:37.495Z,102013.09
2024-05-09T14:26:42.140Z,102006.53
2024-05-09T14:29:44.243Z,102009.03
2024-05-09T14:32:51.474Z,102006.16
2024-05-09T14:35:53.922Z,102006.03
2024-05-09T14:38:58.597Z,102007.50
2024-05-09T14:42:00.634Z,102004.78
2024-05-09T14:45:06.197Z,101996.91
2024-05-09T14:48:11.544Z,101998.84
2024-05-09T14:51:16.500Z,102000.31
2024-05-09T14:54:21.079Z,101982.91
2024-05-09T14:57:25.636Z,101987.38
2024-05-09T15:00:33.121Z,101986.53
2024-05-09T15:03:43.076Z,101981.53
2024-05-09T15:06:45.314Z,101981.63
2024-05-09T15:09:50.044Z,101976.03
2024-05-09T15:12:52.196Z,101967.13
2024-05-09T15:15:56.994Z,101973.59
2024-05-09T15:19:02.114Z,101975.44
2024-05-09T15:22:07.302Z,101964.50
2024-05-09T15:25:09.325Z,101970.16
2024-05-09T15:28:14.112Z,101962.06
2024-05-09T15:31:18.734Z,101961.22
2024-05-09T15:34:23.679Z,101968.44
2024-05-09T15:37:28.797Z,101959.78
2024-05-09T15:40:37.891Z,101958.50
2024-05-09T15:43:44.923Z,101960.88
2024-05-09T15:46:47.555Z,101953.75
2024-05-09T15:49:54.920Z,101952.78
2024-05-09T15:52:57.037Z,101952.56
2024-05-09T15:56:01.794Z,101956.19
2024-05-09T15:59:03.991Z,101952.25
2024-05-09T16:02:11.394Z,101943.31
2024-05-09T16:05:16.322Z,101947.41
2024-05-09T16:08:21.015Z,101947.41
2024-05-09T16:11:23.568Z,101947.34
2024-05-09T16:14:28.190Z,101942.56
2024-05-09T16:17:30.427Z,101948.56
2024-05-09T16:20:41.114Z,101954.28
2024-05-09T16:23:44.422Z,101948.09
2024-05-09T16:26:48.965Z,101949.38
2024-05-09T16:29:51.023Z,101948.63
2024-05-09T16:32:55.869Z,101945.44
2024-05-09T16:36:03.267Z,101942.06
2024-05-09T16:39:05.169Z,101940.91
2024-05-09T16:42:09.993Z,101933.34
2024-05-09T16:45:12.383Z,101945.22
2024-05-09T16:48:17.384Z,101940.78
2024-05-09T16:51:24.726Z,101937.50
2024-05-09T16:54:29.785Z,101939.28
2024-05-09T16:57:31.787Z,101941.41
2024-05-09T17:00:41.669Z,101938.41
2024-05-09T17:03:45.686Z,101938.97
2024-05-09T17:06:53.277Z,101927.38
2024-05-09T17:09:57.843Z,101924.97
2024-05-09T17:13:03.267Z,101929.69
2024-05-09T17:16:10.342Z,101927.25
2024-05-09T17:19:14.927Z,101933.38
2024-05-09T17:22:20.258Z,101927.72
2024-05-09T17:25:24.871Z,101919.44
2024-05-09T17:28:26.970Z,101926.59
2024-05-09T17:31:31.602Z,101919.97
2024-05-09T17:34:33.733Z,101918.34
2024-05-09T17:37:41.126Z,101922.84
2024-05-09T17:40:43.173Z,101925.19
2024-05-09T17:43:47.857Z,101927.78
2024-05-09T17:46:49.978Z,101926.09
2024-05-09T17:49:54.815Z,101927.22
2024-05-09T17:52:59.597Z,101932.09
2024-05-09T17:56:04.764Z,101926.25
2024-05-09T17:59:09.186Z,101922.13
2024-05-09T18:02:15.485Z,101924.44
2024-05-09T18:05:17.611Z,101929.47
2024-05-09T18:08:24.881Z,101923.16
2024-05-09T18:11:29.589Z,101924.31
2024-05-09T18:14:31.588Z,101926.03
2024-05-09T18:17:37.335Z,101922.19
2024-05-09T18:20:44.052Z,101936.13
2024-05-09T18:23:55.495Z,101940.91
2024-05-09T18:27:02.080Z,101935.94
2024-05-09T18:30:09.311Z,101939.31
2024-05-09T18:33:14.768Z,101931.31
2024-05-09T18:36:22.193Z,101935.22
2024-05-09T18:39:26.730Z,101939.97
2024-05-09T18:42:31.394Z,101945.84
2024-05-09T18:45:33.405Z,101951.97
2024-05-09T18:48:38.324Z,101957.25
2024-05-09T18:51:43.035Z,101951.72
2024-05-09T18:54:50.434Z,101954.19
2024-05-09T18:57:52.399Z,101963.63
2024-05-09T19:00:59.899Z,101963.91
2024-05-09T19:04:03.587Z,101958.91
2024-05-09T19:07:08.876Z,101969.69
2024-05-09T19:10:22.222Z,101972.72
2024-05-09T19:13:30.603Z,101981.56
2024-05-09T19:16:32.811Z,101978.22
2024-05-09T19:19:37.680Z,101981.53
2024-05-09T19:22:42.311Z,101977.88
2024-05-09T19:25:49.445Z,101983.88
2024-05-09T19:28:52.694Z,101980.75
2024-05-09T19:31:57.305Z,101975.22
2024-05-09T19:35:02.637Z,101984.28
2024-05-09T19:38:05.337Z,101982.34
2024-05-09T19:41:12.800Z,101986.44
2024-05-09T19:44:14.798Z,101984.19
2024-05-09T19:47:19.922Z,101981.34
2024-05-09T19:50:32.419Z,101985.78
2024-05-09T19:53:42.505Z,101990.69
2024-05-09T19:56:49.760Z,101985.69
2024-05-09T19:59:51.758Z,101999.00
2024-05-09T20:02:56.595Z,101998.41
2024-05-09T20:05:58.782Z,102003.88
2024-05-09T20:09:03.312Z,102000.84
2024-05-09T20:12:09.541Z,102004.13
2024-05-09T20:15:14.093Z,102003.47
2024-05-09T20:18:20.657Z,101998.47
2024-05-09T20:21:22.755Z,101995.84
2024-05-09T20:24:27.419Z,101997.16
2024-05-09T20:27:32.019Z,101999.84
2024-05-09T20:30:37.241Z,101995.03
2024-05-09T20:33:39.441Z,101992.69
2024-05-09T20:36:44.252Z,101992.88
2024-05-09T20:39:48.923Z,101997.72
2024-05-09T20:42:56.428Z,101993.53
2024-05-09T20:46:01.059Z,101991.69
2024-05-09T20:49:05.911Z,102001.75
2024-05-09T20:52:08.110Z,101991.72
2024-05-09T20:55:13.665Z,101997.75
2024-05-09T20:58:21.292Z,101992.03
2024-05-09T21:01:23.988Z,101995.25
2024-05-09T21:04:28.735Z,101985.53
2024-05-09T21:07:30.779Z,101994.66
2024-05-09T21:10:35.856Z,101985.41
2024-05-09T21:13:43.334Z,101986.69
2024-05-09T21:16:45.432Z,101987.44
2024-05-09T21:19:50.508Z,101996.81
2024-05-09T21:22:52.477Z,101995.16
2024-05-09T21:25:57.050Z,101995.81
2024-05-09T21:29:01.943Z,102005.38
2024-05-09T21:32:06.693Z,101999.19
2024-05-09T21:35:08.976Z,101998.88
2024-05-09T21:38:14.715Z,101999.28
2024-05-09T21:41:17.057Z,101998.44
2024-05-09T21:44:24.303Z,102001.72
2024-05-09T21:47:29.166Z,101997.22
2024-05-09T21:50:37.200Z,101994.34
2024-05-09T21:53:45.443Z,101997.81
2024-05-09T21:56:51.895Z,101995.19
2024-05-09T21:59:56.707Z,102001.47
2024-05-09T22:03:01.522Z,101990.47
2024-05-09T22:06:03.730Z,101984.94
2024-05-09T22:09:09.122Z,101990.34
2024-05-09T22:12:14.067Z,101988.09
2024-05-09T22:15:21.589Z,101992.44
2024-05-09T22:18:23.892Z,101987.06
2024-05-09T22:21:28.487Z,101989.50
2024-05-09T22:24:30.401Z,101994.16
2024-05-09T22:27:35.209Z,101989.41
2024-05-09T22:30:40.607Z,101990.00
2024-05-09T22:33:47.674Z,101995.66
2024-05-09T22:36:50.220Z,101993.28
2024-05-09T22:39:54.891Z,101994.38
2024-05-09T22:42:56.881Z,101992.25
2024-05-09T22:46:05.885Z,101993.22
2024-05-09T22:49:07.937Z,101990.25
2024-05-09T22:52:13.294Z,101982.91
2024-05-09T22:55:15.791Z,101993.94
2024-05-09T22:58:20.797Z,101990.59
2024-05-09T23:01:28.221Z,101990.97
2024-05-09T23:04:30.214Z,101989.06
2024-05-09T23:07:35.116Z,101993.41
2024-05-09T23:10:38.206Z,101979.28
2024-05-09T23:13:43.197Z,101983.56
2024-05-09T23:16:47.997Z,101980.38
2024-05-09T23:19:52.733Z,101980.50
2024-05-09T23:22:54.654Z,101983.16
2024-05-09T23:25:59.213Z,101975.25
2024-05-09T23:29:01.593Z,101983.50
2024-05-09T23:32:09.544Z,101981.50
2024-05-09T23:35:11.509Z,101983.66
2024-05-09T23:38:16.555Z,101981.59
2024-05-09T23:41:18.451Z,101982.34
2024-05-09T23:44:23.040Z,101973.00
2024-05-09T23:47:27.712Z,101964.75
2024-05-09T23:50:36.190Z,101971.19
2024-05-09T23:53:47.254Z,101969.25
2024-05-09T23:56:49.145Z,101972.03
2024-05-09T23:59:54.070Z,101971.91
